createdAt,value
2023-04-09T00:01:40.985Z,101140.16
2023-04-09T00:04:09.790Z,101135.28
2023-04-09T00:06:37.021Z,101140.16
2023-04-09T00:09:04.847Z,101137.78
2023-04-09T00:11:32.741Z,101139.44
2023-04-09T00:14:00.447Z,101136.00
2023-04-09T00:16:28.017Z,101140.47
2023-04-09T00:18:55.887Z,101133.34
2023-04-09T00:21:24.995Z,101135.41
2023-04-09T00:23:51.693Z,101135.06
2023-04-09T00:26:18.825Z,101132.41
2023-04-09T00:28:46.512Z,101140.41
2023-04-09T00:31:14.176Z,101131.97
2023-04-09T00:33:42.544Z,101124.56
2023-04-09T00:36:09.632Z,101126.41
2023-04-09T00:38:39.518Z,101124.31
2023-04-09T00:41:07.574Z,101115.59
2023-04-09T00:43:35.293Z,101119.41
2023-04-09T00:46:03.654Z,101116.06
2023-04-09T00:48:31.332Z,101109.81
2023-04-09T00:50:59.260Z,101118.22
2023-04-09T00:53:26.154Z,101111.59
2023-04-09T00:55:56.069Z,101106.31
2023-04-09T00:58:23.483Z,101099.28
2023-04-09T01:00:52.235Z,101099.50
2023-04-09T01:03:22.067Z,101086.84
2023-04-09T01:06:01.053Z,101087.91
2023-04-09T01:08:38.395Z,101092.47
2023-04-09T01:11:20.900Z,101084.34
2023-04-09T01:13:54.081Z,101074.53
2023-04-09T01:16:24.535Z,101079.53
2023-04-09T01:18:58.694Z,101078.25
2023-04-09T01:21:30.861Z,101071.44
2023-04-09T01:24:10.549Z,101073.81
2023-04-09T01:26:54.444Z,101064.94
2023-04-09T01:29:25.259Z,101061.16
2023-04-09T01:31:55.572Z,101059.94
2023-04-09T01:34:23.137Z,101056.09
2023-04-09T01:36:55.024Z,101052.50
2023-04-09T01:39:24.358Z,101057.53
2023-04-09T01:41:53.058Z,101063.06
2023-04-09T01:44:24.303Z,101059.38
2023-04-09T01:46:53.304Z,101051.22
2023-04-09T01:49:20.720Z,101046.31
2023-04-09T01:51:49.429Z,101061.16
2023-04-09T01:54:17.348Z,101056.59
2023-04-09T01:56:46.861Z,101055.50
2023-04-09T01:59:15.959Z,101054.44
2023-04-09T02:01:48.957Z,101050.34
2023-04-09T02:04:23.467Z,101061.06
2023-04-09T02:06:58.887Z,101050.13
2023-04-09T02:09:30.055Z,101046.75
2023-04-09T02:12:02.934Z,101047.09
2023-04-09T02:14:32.993Z,101050.53
2023-04-09T02:17:02.322Z,101045.75
2023-04-09T02:19:40.478Z,101040.81
2023-04-09T02:22:07.941Z,101043.88
2023-04-09T02:24:35.232Z,101040.69
2023-04-09T02:27:02.657Z,101042.03
2023-04-09T02:29:31.758Z,101041.03
2023-04-09T02:31:59.784Z,101038.97
2023-04-09T02:34:29.199Z,101047.72
2023-04-09T02:36:56.920Z,101045.66
2023-04-09T02:39:24.792Z,101035.19
2023-04-09T02:41:52.619Z,101033.47
2023-04-09T02:44:21.647Z,101037.31
2023-04-09T02:46:49.450Z,101042.97
2023-04-09T02:49:16.909Z,101042.97
2023-04-09T02:51:45.400Z,101044.66
2023-04-09T02:54:13.602Z,101044.97
2023-04-09T02:56:40.955Z,101043.59
2023-04-09T02:59:08.631Z,101052.75
2023-04-09T03:01:36.716Z,101054.59
2023-04-09T03:04:04.500Z,101043.72
2023-04-09T03:06:32.423Z,101044.56
2023-04-09T03:09:01.754Z,101040.16
2023-04-09T03:11:29.033Z,101040.59
2023-04-09T03:13:56.882Z,101034.88
2023-04-09T03:16:25.326Z,101034.00
2023-04-09T03:18:52.939Z,101029.59
2023-04-09T03:21:20.777Z,101017.47
2023-04-09T03:23:48.406Z,101017.50
2023-04-09T03:26:16.795Z,101011.09
2023-04-09T03:28:44.392Z,101003.41
2023-04-09T03:31:12.194Z,101007.56
2023-04-09T03:33:40.653Z,101005.25
2023-04-09T03:36:08.334Z,101010.53
2023-04-09T03:38:35.657Z,101012.28
2023-04-09T03:41:03.425Z,101009.47
2023-04-09T03:43:33.680Z,101003.03
2023-04-09T03:46:00.938Z,100998.63
2023-04-09T03:48:28.337Z,100997.81
2023-04-09T03:50:56.055Z,100992.56
2023-04-09T03:53:23.776Z,100993.06
2023-04-09T03:55:50.470Z,100986.75
2023-04-09T03:58:17.876Z,100983.38
2023-04-09T04:00:46.878Z,100976.59
2023-04-09T04:03:14.640Z,100978.91
2023-04-09T04:05:42.248Z,100971.44
2023-04-09T04:08:09.228Z,100978.22
2023-04-09T04:10:36.333Z,100979.25
2023-04-09T04:13:03.973Z,100976.88
2023-04-09T04:15:31.632Z,100977.91
2023-04-09T04:18:00.691Z,100964.31
2023-04-09T04:20:28.644Z,100970.78
2023-04-09T04:22:56.293Z,100966.84
2023-04-09T04:25:25.351Z,100969.09
2023-04-09T04:27:53.344Z,100967.78
2023-04-09T04:30:21.085Z,100959.03
2023-04-09T04:32:48.913Z,100965.19
2023-04-09T04:35:19.062Z,100957.72
2023-04-09T04:37:49.648Z,100945.81
2023-04-09T04:40:16.926Z,100938.34
2023-04-09T04:42:44.416Z,100935.47
2023-04-09T04:45:11.835Z,100933.13
2023-04-09T04:47:39.650Z,100926.31
2023-04-09T04:50:08.772Z,100925.13
2023-04-09T04:52:37.531Z,100934.94
2023-04-09T04:55:05.638Z,100934.38
2023-04-09T04:57:32.411Z,100938.84
2023-04-09T04:59:59.999Z,100937.81
2023-04-09T05:02:27.220Z,100937.16
2023-04-09T05:04:54.961Z,100945.66
2023-04-09T05:07:22.719Z,100941.22
2023-04-09T05:09:52.553Z,100943.28
2023-04-09T05:12:20.464Z,100936.47
2023-04-09T05:14:47.907Z,100932.91
2023-04-09T05:17:15.402Z,100938.16
2023-04-09T05:19:43.033Z,100928.31
2023-04-09T05:22:10.479Z,100924.97
2023-04-09T05:24:38.240Z,100912.03
2023-04-09T05:27:07.203Z,100907.47
2023-04-09T05:29:34.644Z,100905.41
2023-04-09T05:32:01.915Z,100903.56
2023-04-09T05:34:29.812Z,100907.81
2023-04-09T05:36:57.034Z,100898.38
2023-04-09T05:39:24.766Z,100892.97
2023-04-09T05:41:52.446Z,100899.13
2023-04-09T05:44:21.373Z,100891.53
2023-04-09T05:46:48.676Z,100889.47
2023-04-09T05:49:16.295Z,100874.69
2023-04-09T05:51:43.985Z,100886.59
2023-04-09T05:54:11.466Z,100881.44
2023-04-09T05:56:38.408Z,100888.44
2023-04-09T05:59:06.134Z,100892.38
2023-04-09T06:01:35.598Z,100894.06
2023-04-09T06:04:03.594Z,100896.13
2023-04-09T06:06:31.109Z,100898.13
2023-04-09T06:08:58.899Z,100897.44
2023-04-09T06:11:26.937Z,100897.44
2023-04-09T06:13:54.255Z,100896.25
2023-04-09T06:16:21.758Z,100891.66
2023-04-09T06:18:50.761Z,100888.75
2023-04-09T06:21:18.009Z,100900.28
2023-04-09T06:23:45.691Z,100910.50
2023-04-09T06:26:12.687Z,100909.41
2023-04-09T06:28:40.296Z,100907.56
2023-04-09T06:31:08.286Z,100907.53
2023-04-09T06:33:36.042Z,100912.47
2023-04-09T06:36:05.302Z,100912.50
2023-04-09T06:38:32.661Z,100922.97
2023-04-09T06:41:00.092Z,100931.53
2023-04-09T06:43:27.608Z,100925.34
2023-04-09T06:45:55.246Z,100917.94
2023-04-09T06:48:23.330Z,100926.69
2023-04-09T06:50:51.078Z,100929.25
2023-04-09T06:53:19.337Z,100920.16
2023-04-09T06:55:48.246Z,100916.91
2023-04-09T06:58:16.225Z,100914.19
2023-04-09T07:00:43.417Z,100913.03
2023-04-09T07:03:11.473Z,100914.22
2023-04-09T07:05:39.005Z,100909.47
2023-04-09T07:08:06.146Z,100907.59
2023-04-09T07:10:35.351Z,100904.44
2023-04-09T07:13:02.600Z,100904.16
2023-04-09T07:15:30.247Z,100897.31
2023-04-09T07:17:58.174Z,100890.44
2023-04-09T07:20:25.596Z,100889.28
2023-04-09T07:22:52.807Z,100891.47
2023-04-09T07:25:20.527Z,100888.59
2023-04-09T07:27:49.902Z,100886.78
2023-04-09T07:30:17.591Z,100892.88
2023-04-09T07:32:45.482Z,100894.38
2023-04-09T07:35:12.811Z,100900.19
2023-04-09T07:37:41.634Z,100907.28
2023-04-09T07:40:09.493Z,100899.78
2023-04-09T07:42:38.381Z,100896.75
2023-04-09T07:45:09.894Z,100893.81
2023-04-09T07:47:38.630Z,100900.38
2023-04-09T07:50:07.158Z,100894.22
2023-04-09T07:52:35.070Z,100897.09
2023-04-09T07:55:02.752Z,100911.38
2023-04-09T07:57:32.009Z,100916.16
2023-04-09T08:00:00.203Z,100916.28
2023-04-09T08:02:28.882Z,100917.03
2023-04-09T08:04:56.035Z,100915.84
2023-04-09T08:07:23.032Z,100932.75
2023-04-09T08:09:50.537Z,100921.19
2023-04-09T08:12:17.620Z,100918.44
2023-04-09T08:14:46.475Z,100922.28
2023-04-09T08:17:14.581Z,100925.75
2023-04-09T08:19:43.666Z,100923.06
2023-04-09T08:22:11.268Z,100929.38
2023-04-09T08:24:39.015Z,100924.69
2023-04-09T08:27:06.724Z,100923.00
2023-04-09T08:29:34.780Z,100916.69
2023-04-09T08:32:02.230Z,100917.66
2023-04-09T08:34:29.728Z,100929.41
2023-04-09T08:36:59.521Z,100931.75
2023-04-09T08:39:26.718Z,100928.63
2023-04-09T08:41:59.607Z,100927.44
2023-04-09T08:44:27.668Z,100921.66
2023-04-09T08:46:55.787Z,100911.69
2023-04-09T08:49:26.278Z,100909.00
2023-04-09T08:51:54.616Z,100904.41
2023-04-09T08:54:24.334Z,100904.69
2023-04-09T08:56:51.994Z,100896.63
2023-04-09T08:59:18.849Z,100887.97
2023-04-09T09:01:45.784Z,100890.84
2023-04-09T09:04:13.545Z,100895.00
2023-04-09T09:06:42.817Z,100897.94
2023-04-09T09:09:11.717Z,100889.16
2023-04-09T09:11:42.606Z,100874.50
2023-04-09T09:14:11.741Z,100878.84
2023-04-09T09:16:41.843Z,100879.56
2023-04-09T09:19:10.676Z,100874.88
2023-04-09T09:21:39.611Z,100867.91
2023-04-09T09:24:18.870Z,100860.56
2023-04-09T09:26:49.553Z,100873.31
2023-04-09T09:29:17.461Z,100866.72
2023-04-09T09:31:49.258Z,100866.00
2023-04-09T09:34:17.139Z,100866.06
2023-04-09T09:36:45.802Z,100865.75
2023-04-09T09:39:13.874Z,100860.47
2023-04-09T09:41:41.692Z,100864.63
2023-04-09T09:44:11.922Z,100861.81
2023-04-09T09:46:41.359Z,100857.56
2023-04-09T09:49:09.380Z,100844.78
2023-04-09T09:51:39.423Z,100853.31
2023-04-09T09:54:08.596Z,100845.81
2023-04-09T09:56:39.716Z,100849.59
2023-04-09T09:59:13.174Z,100840.34
2023-04-09T10:01:43.569Z,100850.16
2023-04-09T10:04:15.469Z,100843.13
2023-04-09T10:06:44.706Z,100842.00
2023-04-09T10:09:19.796Z,100835.09
2023-04-09T10:11:49.402Z,100835.00
2023-04-09T10:14:18.753Z,100838.31
2023-04-09T10:16:47.092Z,100818.72
2023-04-09T10:19:15.766Z,100825.56
2023-04-09T10:21:51.994Z,100816.38
2023-04-09T10:24:21.068Z,100815.22
2023-04-09T10:26:49.774Z,100806.06
2023-04-09T10:29:28.983Z,100802.41
2023-04-09T10:32:07.524Z,100796.81
2023-04-09T10:34:38.384Z,100789.34
2023-04-09T10:37:07.812Z,100775.75
2023-04-09T10:39:39.014Z,100784.94
2023-04-09T10:42:11.757Z,100764.34
2023-04-09T10:44:40.905Z,100770.25
2023-04-09T10:47:08.833Z,100753.91
2023-04-09T10:49:37.270Z,100756.53
2023-04-09T10:52:05.612Z,100759.69
2023-04-09T10:54:46.741Z,100758.91
2023-04-09T10:57:16.679Z,100749.59
2023-04-09T10:59:46.721Z,100733.19
2023-04-09T11:02:44.615Z,100749.81
2023-04-09T11:05:20.409Z,100738.38
2023-04-09T11:07:53.331Z,100743.28
2023-04-09T11:10:21.024Z,100731.69
2023-04-09T11:12:48.582Z,100732.88
2023-04-09T11:15:20.664Z,100723.09
2023-04-09T11:17:48.715Z,100722.47
2023-04-09T11:20:22.083Z,100710.66
2023-04-09T11:22:49.850Z,100704.59
2023-04-09T11:25:21.685Z,100702.50
2023-04-09T11:27:48.856Z,100701.25
2023-04-09T11:30:18.225Z,100700.19
2023-04-09T11:32:47.754Z,100703.34
2023-04-09T11:35:17.670Z,100693.09
2023-04-09T11:37:46.418Z,100697.72
2023-04-09T11:40:17.979Z,100700.72
2023-04-09T11:42:46.486Z,100691.69
2023-04-09T11:45:13.777Z,100693.31
2023-04-09T11:47:41.536Z,100687.78
2023-04-09T11:50:12.778Z,100678.44
2023-04-09T11:52:41.683Z,100692.91
2023-04-09T11:55:09.910Z,100688.69
2023-04-09T11:57:40.934Z,100686.22
2023-04-09T12:00:09.951Z,100682.34
2023-04-09T12:02:42.614Z,100678.63
2023-04-09T12:05:21.932Z,100669.09
2023-04-09T12:07:56.385Z,100668.22
2023-04-09T12:10:28.487Z,100666.19
2023-04-09T12:12:56.296Z,100674.06
2023-04-09T12:15:25.317Z,100678.84
2023-04-09T12:17:55.941Z,100672.00
2023-04-09T12:20:33.811Z,100665.88
2023-04-09T12:23:03.040Z,100673.47
2023-04-09T12:25:31.790Z,100681.59
2023-04-09T12:28:01.493Z,100675.91
2023-04-09T12:30:29.109Z,100668.22
2023-04-09T12:32:57.323Z,100668.41
2023-04-09T12:35:25.834Z,100663.16
2023-04-09T12:37:55.901Z,100659.28
2023-04-09T12:40:23.107Z,100657.78
2023-04-09T12:42:50.231Z,100661.88
2023-04-09T12:45:18.858Z,100660.28
2023-04-09T12:47:47.170Z,100649.72
2023-04-09T12:50:15.882Z,100639.84
2023-04-09T12:52:43.933Z,100636.09
2023-04-09T12:55:13.806Z,100642.72
2023-04-09T12:57:44.896Z,100634.28
2023-04-09T13:00:13.191Z,100626.59
2023-04-09T13:02:40.722Z,100627.16
2023-04-09T13:05:09.068Z,100627.78
2023-04-09T13:07:35.974Z,100625.28
2023-04-09T13:10:03.378Z,100617.84
2023-04-09T13:12:34.094Z,100616.75
2023-04-09T13:15:01.661Z,100612.06
2023-04-09T13:17:32.546Z,100610.41
2023-04-09T13:20:00.288Z,100606.69
2023-04-09T13:22:27.792Z,100601.09
2023-04-09T13:24:55.440Z,100594.44
2023-04-09T13:27:23.573Z,100593.84
2023-04-09T13:29:53.159Z,100592.47
2023-04-09T13:32:22.120Z,100586.53
2023-04-09T13:34:49.040Z,100594.50
2023-04-09T13:37:17.161Z,100595.25
2023-04-09T13:39:44.233Z,100592.25
2023-04-09T13:42:14.393Z,100601.72
2023-04-09T13:44:42.318Z,100595.78
2023-04-09T13:47:11.436Z,100591.63
2023-04-09T13:49:38.702Z,100588.78
2023-04-09T13:52:07.116Z,100579.81
2023-04-09T13:54:35.674Z,100579.72
2023-04-09T13:57:04.023Z,100589.38
2023-04-09T13:59:31.903Z,100585.47
2023-04-09T14:01:59.391Z,100577.78
2023-04-09T14:04:28.807Z,100572.47
2023-04-09T14:06:56.283Z,100586.84
2023-04-09T14:09:23.702Z,100579.56
2023-04-09T14:11:51.480Z,100568.31
2023-04-09T14:14:19.513Z,100572.63
2023-04-09T14:16:47.613Z,100573.16
2023-04-09T14:19:15.443Z,100572.00
2023-04-09T14:21:44.221Z,100570.25
2023-04-09T14:24:12.032Z,100574.09
2023-04-09T14:26:39.774Z,100564.38
2023-04-09T14:29:07.113Z,100563.50
2023-04-09T14:31:34.391Z,100557.13
2023-04-09T14:34:01.537Z,100553.47
2023-04-09T14:36:28.607Z,100560.28
2023-04-09T14:38:59.488Z,100558.13
2023-04-09T14:41:27.565Z,100558.59
2023-04-09T14:43:55.039Z,100542.63
2023-04-09T14:46:22.717Z,100536.19
2023-04-09T14:48:50.610Z,100540.25
2023-04-09T14:51:18.126Z,100546.03
2023-04-09T14:53:49.911Z,100543.81
2023-04-09T14:56:19.316Z,100538.44
2023-04-09T14:58:46.598Z,100536.16
2023-04-09T15:01:15.360Z,100522.47
2023-04-09T15:03:43.129Z,100515.03
2023-04-09T15:06:12.664Z,100532.44
2023-04-09T15:08:40.570Z,100511.69
2023-04-09T15:11:09.148Z,100490.06
2023-04-09T15:13:38.197Z,100482.59
2023-04-09T15:16:06.344Z,100476.81
2023-04-09T15:18:34.722Z,100476.63
2023-04-09T15:21:02.150Z,100474.19
2023-04-09T15:23:30.145Z,100464.97
2023-04-09T15:25:56.965Z,100458.94
2023-04-09T15:28:24.360Z,100455.41
2023-04-09T15:30:55.501Z,100453.28
2023-04-09T15:33:23.872Z,100451.13
2023-04-09T15:35:51.566Z,100459.28
2023-04-09T15:38:18.897Z,100446.16
2023-04-09T15:40:46.473Z,100431.03
2023-04-09T15:43:13.913Z,100428.75
2023-04-09T15:45:41.512Z,100404.88
2023-04-09T15:48:11.005Z,100401.00
2023-04-09T15:50:38.656Z,100394.00
2023-04-09T15:53:05.798Z,100401.84
2023-04-09T15:55:33.572Z,100390.22
2023-04-09T15:58:01.019Z,100398.00
2023-04-09T16:00:28.840Z,100398.81
2023-04-09T16:02:56.871Z,100395.75
2023-04-09T16:05:26.763Z,100392.16
2023-04-09T16:07:54.359Z,100387.97
2023-04-09T16:10:23.136Z,100391.31
2023-04-09T16:12:50.348Z,100384.47
2023-04-09T16:15:17.455Z,100380.03
2023-04-09T16:17:44.896Z,100384.84
2023-04-09T16:20:13.571Z,100382.69
2023-04-09T16:22:48.598Z,100377.22
2023-04-09T16:25:16.216Z,100364.25
2023-04-09T16:27:43.658Z,100366.13
2023-04-09T16:30:12.532Z,100359.72
2023-04-09T16:32:40.101Z,100357.97
2023-04-09T16:35:07.952Z,100354.84
2023-04-09T16:37:35.616Z,100362.28
2023-04-09T16:40:07.244Z,100362.84
2023-04-09T16:42:34.881Z,100347.06
2023-04-09T16:45:02.309Z,100337.97
2023-04-09T16:47:29.977Z,100327.31
2023-04-09T16:49:57.401Z,100323.72
2023-04-09T16:52:25.052Z,100323.00
2023-04-09T16:54:52.598Z,100335.09
2023-04-09T16:57:21.883Z,100330.31
2023-04-09T16:59:51.425Z,100318.69
2023-04-09T17:02:19.772Z,100316.63
2023-04-09T17:04:47.531Z,100321.09
2023-04-09T17:07:14.850Z,100308.25
2023-04-09T17:09:41.971Z,100313.03
2023-04-09T17:12:09.823Z,100308.13
2023-04-09T17:14:39.004Z,100299.75
2023-04-09T17:17:06.671Z,100302.38
2023-04-09T17:19:34.614Z,100303.94
2023-04-09T17:22:02.268Z,100298.31
2023-04-09T17:24:29.777Z,100294.47
2023-04-09T17:26:57.690Z,100300.94
2023-04-09T17:29:25.546Z,100301.78
2023-04-09T17:31:55.460Z,100298.09
2023-04-09T17:34:23.155Z,100288.84
2023-04-09T17:36:51.474Z,100288.72
2023-04-09T17:39:19.237Z,100295.06
2023-04-09T17:41:47.402Z,100297.00
2023-04-09T17:44:15.580Z,100301.19
2023-04-09T17:46:43.357Z,100303.81
2023-04-09T17:49:12.717Z,100301.91
2023-04-09T17:51:40.094Z,100302.50
2023-04-09T17:54:07.759Z,100297.09
2023-04-09T17:56:34.609Z,100286.44
2023-04-09T17:59:01.732Z,100284.78
2023-04-09T18:01:29.900Z,100275.72
2023-04-09T18:03:57.469Z,100275.91
2023-04-09T18:06:27.261Z,100276.88
2023-04-09T18:08:54.262Z,100262.19
2023-04-09T18:11:21.510Z,100275.66
2023-04-09T18:13:49.716Z,100267.44
2023-04-09T18:16:17.361Z,100274.59
2023-04-09T18:18:45.256Z,100269.34
2023-04-09T18:21:13.168Z,100259.28
2023-04-09T18:23:41.766Z,100259.16
2023-04-09T18:26:08.628Z,100257.13
2023-04-09T18:28:36.929Z,100262.38
2023-04-09T18:31:04.964Z,100262.97
2023-04-09T18:33:31.818Z,100272.09
2023-04-09T18:36:01.338Z,100268.50
2023-04-09T18:38:29.087Z,100267.63
2023-04-09T18:40:59.445Z,100271.38
2023-04-09T18:43:30.070Z,100269.22
2023-04-09T18:45:57.408Z,100256.88
2023-04-09T18:48:24.730Z,100266.22
2023-04-09T18:50:52.392Z,100259.13
2023-04-09T18:53:21.286Z,100261.16
2023-04-09T18:55:48.962Z,100261.16
2023-04-09T18:58:18.435Z,100260.84
2023-04-09T19:00:45.462Z,100254.50
2023-04-09T19:03:13.419Z,100248.69
2023-04-09T19:05:41.368Z,100238.38
2023-04-09T19:08:08.828Z,100255.59
2023-04-09T19:10:36.363Z,100249.03
2023-04-09T19:13:04.765Z,100240.06
2023-04-09T19:15:34.028Z,100241.69
2023-04-09T19:18:01.501Z,100241.84
2023-04-09T19:20:29.155Z,100229.25
2023-04-09T19:22:56.619Z,100220.84
2023-04-09T19:25:24.088Z,100219.53
2023-04-09T19:27:51.630Z,100214.94
2023-04-09T19:30:19.525Z,100213.13
2023-04-09T19:32:50.461Z,100220.28
2023-04-09T19:35:18.200Z,100219.78
2023-04-09T19:37:46.114Z,100219.22
2023-04-09T19:40:14.734Z,100212.38
2023-04-09T19:42:42.262Z,100217.41
2023-04-09T19:45:10.621Z,100204.06
2023-04-09T19:47:39.018Z,100200.44
2023-04-09T19:50:09.474Z,100200.47
2023-04-09T19:52:36.833Z,100207.47
2023-04-09T19:55:05.405Z,100201.97
2023-04-09T19:57:33.967Z,100197.41
2023-04-09T20:00:02.888Z,100204.84
2023-04-09T20:02:30.624Z,100200.59
2023-04-09T20:04:58.242Z,100200.94
2023-04-09T20:07:27.850Z,100193.66
2023-04-09T20:09:55.565Z,100197.53
2023-04-09T20:12:23.620Z,100195.13
2023-04-09T20:14:51.524Z,100191.44
2023-04-09T20:17:19.526Z,100189.59
2023-04-09T20:19:47.972Z,100184.41
2023-04-09T20:22:15.430Z,100182.81
2023-04-09T20:24:44.626Z,100183.56
2023-04-09T20:27:12.329Z,100183.56
2023-04-09T20:29:40.224Z,100181.97
2023-04-09T20:32:07.814Z,100171.00
2023-04-09T20:34:35.510Z,100161.94
2023-04-09T20:37:03.463Z,100156.19
2023-04-09T20:39:30.991Z,100150.72
2023-04-09T20:41:59.856Z,100158.53
2023-04-09T20:44:28.869Z,100149.97
2023-04-09T20:46:56.616Z,100145.72
2023-04-09T20:49:24.565Z,100137.72
2023-04-09T20:51:51.997Z,100147.13
2023-04-09T20:54:19.455Z,100135.88
2023-04-09T20:56:46.742Z,100135.09
2023-04-09T20:59:15.823Z,100127.16
2023-04-09T21:01:43.188Z,100124.38
2023-04-09T21:04:10.934Z,100120.75
2023-04-09T21:06:39.121Z,100116.38
2023-04-09T21:09:08.003Z,100119.19
2023-04-09T21:11:35.726Z,100108.53
2023-04-09T21:14:03.292Z,100112.81
2023-04-09T21:16:33.126Z,100115.31
2023-04-09T21:19:01.271Z,100110.91
2023-04-09T21:21:28.888Z,100109.38
2023-04-09T21:23:56.793Z,100093.91
2023-04-09T21:26:25.195Z,100093.66
2023-04-09T21:28:52.269Z,100087.09
2023-04-09T21:31:19.984Z,100085.56
2023-04-09T21:33:49.966Z,100085.84
2023-04-09T21:36:18.125Z,100094.25
2023-04-09T21:38:45.124Z,100081.69
2023-04-09T21:41:12.500Z,100079.25
2023-04-09T21:43:39.990Z,100068.34
2023-04-09T21:46:07.534Z,100050.50
2023-04-09T21:48:35.677Z,100031.25
2023-04-09T21:51:08.994Z,100039.31
2023-04-09T21:53:36.952Z,100025.47
2023-04-09T21:56:05.271Z,100018.47
2023-04-09T21:58:34.296Z,100019.06
2023-04-09T22:01:02.712Z,100013.41
2023-04-09T22:03:29.664Z,100017.69
2023-04-09T22:05:57.074Z,100021.88
2023-04-09T22:08:25.319Z,100026.28
2023-04-09T22:10:52.499Z,100008.09
2023-04-09T22:13:19.800Z,100025.53
2023-04-09T22:15:47.993Z,100017.63
2023-04-09T22:18:15.669Z,100015.00
2023-04-09T22:20:42.428Z,100013.25
2023-04-09T22:23:10.268Z,99997.66
2023-04-09T22:25:39.110Z,99995.56
2023-04-09T22:28:06.893Z,99982.53
2023-04-09T22:30:34.269Z,99972.34
2023-04-09T22:33:01.940Z,99978.69
2023-04-09T22:35:29.386Z,99974.00
2023-04-09T22:37:56.563Z,99965.13
2023-04-09T22:40:24.592Z,99974.41
2023-04-09T22:42:54.316Z,99983.97
2023-04-09T22:45:21.621Z,99995.34
2023-04-09T22:47:49.693Z,99987.66
2023-04-09T22:50:17.254Z,99989.47
2023-04-09T22:52:45.010Z,100008.28
2023-04-09T22:55:12.886Z,99996.72
2023-04-09T22:57:40.337Z,100005.88
2023-04-09T23:00:11.432Z,99995.44
2023-04-09T23:02:39.128Z,99991.53
2023-04-09T23:05:08.192Z,99974.88
2023-04-09T23:07:36.123Z,99971.91
2023-04-09T23:10:03.866Z,99952.47
2023-04-09T23:12:31.445Z,99956.31
2023-04-09T23:14:58.717Z,99933.97
2023-04-09T23:17:28.890Z,99929.78
2023-04-09T23:19:56.291Z,99929.59
2023-04-09T23:22:24.065Z,99926.59
2023-04-09T23:24:51.428Z,99919.44
2023-04-09T23:27:19.581Z,99908.38
2023-04-09T23:29:46.977Z,99887.28
2023-04-09T23:32:14.497Z,99899.28
2023-04-09T23:34:43.753Z,99897.16
2023-04-09T23:37:11.483Z,99882.34
2023-04-09T23:39:40.024Z,99892.06
2023-04-09T23:42:08.427Z,99867.38
2023-04-09T23:44:36.988Z,99859.25
2023-04-09T23:47:04.520Z,99871.94
2023-04-09T23:49:32.285Z,99864.97
2023-04-09T23:52:01.329Z,99865.81
2023-04-09T23:54:28.628Z,99855.09
2023-04-09T23:56:56.455Z,99856.97
2023-04-09T23:59:23.724Z,99848.75
